sensor_id;sensor_type;location;lat;lon;timestamp;pressure;altitude;pressure_sealevel;temperature;humidity
12624;BME280;6377;42.836;23.998;2023-04-19T00:00:20;95325.81;;;9.20;100.00
12624;BME280;6377;42.836;23.998;2023-04-19T00:02:47;95326.81;;;9.19;100.00
12624;BME280;6377;42.836;23.998;2023-04-19T00:05:14;95326.53;;;9.14;100.00
12624;BME280;6377;42.836;23.998;2023-04-19T00:07:43;95279.25;;;8.90;100.00
12624;BME280;6377;42.836;23.998;2023-04-19T00:10:10;95322.53;;;9.18;100.00
12624;BME280;6377;42.836;23.998;2023-04-19T00:12:37;95319.44;;;9.15;100.00
12624;BME280;6377;42.836;23.998;2023-04-19T00:15:05;95320.53;;;9.20;100.00
12624;BME280;6377;42.836;23.998;2023-04-19T00:17:34;95320.66;;;9.27;100.00
12624;BME280;6377;42.836;23.998;2023-04-19T00:20:01;95305.19;;;9.24;100.00
12624;BME280;6377;42.836;23.998;2023-04-19T00:22:28;95313.22;;;9.45;100.00
12624;BME280;6377;42.836;23.998;2023-04-19T00:24:55;95296.94;;;9.41;100.00
12624;BME280;6377;42.836;23.998;2023-04-19T00:27:22;95310.78;;;9.58;100.00
12624;BME280;6377;42.836;23.998;2023-04-19T00:29:50;95308.41;;;9.63;100.00
12624;BME280;6377;42.836;23.998;2023-04-19T00:32:17;95303.22;;;9.70;100.00
12624;BME280;6377;42.836;23.998;2023-04-19T00:34:46;95288.81;;;9.57;100.00
12624;BME280;6377;42.836;23.998;2023-04-19T00:37:13;95294.56;;;9.61;100.00
12624;BME280;6377;42.836;23.998;2023-04-19T00:39:40;95306.13;;;9.75;100.00
12624;BME280;6377;42.836;23.998;2023-04-19T00:42:07;95310.41;;;9.76;100.00
12624;BME280;6377;42.836;23.998;2023-04-19T00:44:34;95307.41;;;9.79;100.00
12624;BME280;6377;42.836;23.998;2023-04-19T00:47:02;95302.50;;;9.76;100.00
12624;BME280;6377;42.836;23.998;2023-04-19T00:49:29;95275.72;;;9.49;100.00
12624;BME280;6377;42.836;23.998;2023-04-19T00:51:58;95305.22;;;9.68;100.00
12624;BME280;6377;42.836;23.998;2023-04-19T00:54:25;95304.25;;;9.69;100.00
12624;BME280;6377;42.836;23.998;2023-04-19T00:56:53;95301.75;;;9.67;100.00
12624;BME280;6377;42.836;23.998;2023-04-19T00:59:20;95305.22;;;9.68;100.00
12624;BME280;6377;42.836;23.998;2023-04-19T01:01:48;95304.66;;;9.72;100.00
12624;BME280;6377;42.836;23.998;2023-04-19T01:04:15;95298.03;;;9.76;100.00
12624;BME280;6377;42.836;23.998;2023-04-19T01:06:42;95294.56;;;9.76;100.00
12624;BME280;6377;42.836;23.998;2023-04-19T01:09:11;95288.31;;;9.77;100.00
12624;BME280;6377;42.836;23.998;2023-04-19T01:11:38;95288.81;;;9.72;100.00
12624;BME280;6377;42.836;23.998;2023-04-19T01:14:05;95286.19;;;9.72;100.00
12624;BME280;6377;42.836;23.998;2023-04-19T01:16:32;95252.44;;;9.53;100.00
12624;BME280;6377;42.836;23.998;2023-04-19T01:19:00;95288.41;;;9.69;100.00
12624;BME280;6377;42.836;23.998;2023-04-19T01:21:28;95273.09;;;9.64;100.00
12624;BME280;6377;42.836;23.998;2023-04-19T01:23:58;95292.56;;;9.63;100.00
12624;BME280;6377;42.836;23.998;2023-04-19T01:26:25;95284.94;;;9.68;100.00
12624;BME280;6377;42.836;23.998;2023-04-19T01:28:52;95279.81;;;9.67;100.00
12624;BME280;6377;42.836;23.998;2023-04-19T01:31:20;95284.28;;;9.66;100.00
12624;BME280;6377;42.836;23.998;2023-04-19T01:33:47;95286.38;;;9.56;100.00
12624;BME280;6377;42.836;23.998;2023-04-19T01:36:14;95282.81;;;9.49;100.00
12624;BME280;6377;42.836;23.998;2023-04-19T01:38:41;95281.19;;;9.48;100.00
12624;BME280;6377;42.836;23.998;2023-04-19T01:41:10;95280.38;;;9.47;100.00
12624;BME280;6377;42.836;23.998;2023-04-19T01:43:37;95273.28;;;9.48;100.00
12624;BME280;6377;42.836;23.998;2023-04-19T01:46:04;95252.59;;;9.37;100.00
12624;BME280;6377;42.836;23.998;2023-04-19T01:48:31;95267.44;;;9.52;100.00
12624;BME280;6377;42.836;23.998;2023-04-19T01:50:58;95271.25;;;9.50;100.00
12624;BME280;6377;42.836;23.998;2023-04-19T01:53:25;95266.97;;;9.49;100.00
12624;BME280;6377;42.836;23.998;2023-04-19T01:55:53;95263.06;;;9.45;100.00
12624;BME280;6377;42.836;23.998;2023-04-19T01:58:22;95255.44;;;9.50;100.00
12624;BME280;6377;42.836;23.998;2023-04-19T02:00:49;95251.25;;;9.55;100.00
12624;BME280;6377;42.836;23.998;2023-04-19T02:03:16;95235.50;;;9.47;100.00
12624;BME280;6377;42.836;23.998;2023-04-19T02:05:43;95253.88;;;9.70;100.00
12624;BME280;6377;42.836;23.998;2023-04-19T02:08:10;95259.06;;;9.78;100.00
12624;BME280;6377;42.836;23.998;2023-04-19T02:10:37;95258.22;;;9.78;100.00
12624;BME280;6377;42.836;23.998;2023-04-19T02:13:04;95262.25;;;9.74;100.00
12624;BME280;6377;42.836;23.998;2023-04-19T02:15:35;95259.78;;;9.72;100.00
12624;BME280;6377;42.836;23.998;2023-04-19T02:18:02;95254.88;;;9.69;100.00
12624;BME280;6377;42.836;23.998;2023-04-19T02:20:31;95212.28;;;9.43;100.00
12624;BME280;6377;42.836;23.998;2023-04-19T02:22:58;95238.59;;;9.51;100.00
12624;BME280;6377;42.836;23.998;2023-04-19T02:25:25;95258.59;;;9.75;100.00
12624;BME280;6377;42.836;23.998;2023-04-19T02:27:53;95261.31;;;9.81;100.00
12624;BME280;6377;42.836;23.998;2023-04-19T02:30:20;95258.69;;;9.81;100.00
12624;BME280;6377;42.836;23.998;2023-04-19T02:32:48;95224.28;;;9.60;100.00
12624;BME280;6377;42.836;23.998;2023-04-19T02:35:16;95256.13;;;9.88;100.00
12624;BME280;6377;42.836;23.998;2023-04-19T02:37:43;95247.31;;;9.81;100.00
12624;BME280;6377;42.836;23.998;2023-04-19T02:40:10;95237.56;;;9.81;100.00
12624;BME280;6377;42.836;23.998;2023-04-19T02:42:38;95252.94;;;9.92;100.00
12624;BME280;6377;42.836;23.998;2023-04-19T02:45:06;95222.00;;;9.72;100.00
12624;BME280;6377;42.836;23.998;2023-04-19T02:47:33;95234.03;;;9.74;100.00
12624;BME280;6377;42.836;23.998;2023-04-19T02:50:02;95261.06;;;9.62;100.00
12624;BME280;6377;42.836;23.998;2023-04-19T02:52:29;95248.84;;;9.46;100.00
12624;BME280;6377;42.836;23.998;2023-04-19T02:54:56;95252.16;;;9.48;100.00
12624;BME280;6377;42.836;23.998;2023-04-19T02:57:23;95255.44;;;9.50;100.00
12624;BME280;6377;42.836;23.998;2023-04-19T02:59:51;95241.78;;;9.46;100.00
12624;BME280;6377;42.836;23.998;2023-04-19T03:02:18;95247.03;;;9.46;100.00
12624;BME280;6377;42.836;23.998;2023-04-19T03:04:45;95079.25;;;8.35;100.00
12624;BME280;6377;42.836;23.998;2023-04-19T03:07:14;95252.78;;;9.35;100.00
12624;BME280;6377;42.836;23.998;2023-04-19T03:09:41;95251.22;;;9.26;100.00
12624;BME280;6377;42.836;23.998;2023-04-19T03:12:08;95254.31;;;9.15;100.00
12624;BME280;6377;42.836;23.998;2023-04-19T03:14:36;95260.28;;;9.09;100.00
12624;BME280;6377;42.836;23.998;2023-04-19T03:17:03;95228.50;;;8.88;100.00
12624;BME280;6377;42.836;23.998;2023-04-19T03:19:30;95256.25;;;8.98;100.00
12624;BME280;6377;42.836;23.998;2023-04-19T03:21:57;95252.97;;;8.96;100.00
12624;BME280;6377;42.836;23.998;2023-04-19T03:24:30;95231.34;;;8.86;100.00
12624;BME280;6377;42.836;23.998;2023-04-19T03:26:57;95260.06;;;8.96;100.00
12624;BME280;6377;42.836;23.998;2023-04-19T03:29:24;95267.22;;;8.87;100.00
12624;BME280;6377;42.836;23.998;2023-04-19T03:31:51;95257.97;;;8.91;100.00
12624;BME280;6377;42.836;23.998;2023-04-19T03:34:18;95257.50;;;8.88;100.00
12624;BME280;6377;42.836;23.998;2023-04-19T03:36:45;95257.16;;;8.91;100.00
12624;BME280;6377;42.836;23.998;2023-04-19T03:39:12;95261.50;;;8.84;100.00
12624;BME280;6377;42.836;23.998;2023-04-19T03:41:41;95259.03;;;8.82;100.00
12624;BME280;6377;42.836;23.998;2023-04-19T03:44:08;95265.78;;;8.85;100.00
12624;BME280;6377;42.836;23.998;2023-04-19T03:46:35;95257.13;;;8.76;100.00
12624;BME280;6377;42.836;23.998;2023-04-19T03:49:02;95262.75;;;8.73;100.00
12624;BME280;6377;42.836;23.998;2023-04-19T03:51:29;95261.09;;;8.72;100.00
12624;BME280;6377;42.836;23.998;2023-04-19T03:53:57;95261.16;;;8.64;100.00
12624;BME280;6377;42.836;23.998;2023-04-19T03:56:24;95257.69;;;8.64;100.00
12624;BME280;6377;42.836;23.998;2023-04-19T03:58:52;95265.97;;;8.61;100.00
12624;BME280;6377;42.836;23.998;2023-04-19T04:01:20;95262.94;;;8.72;100.00
12624;BME280;6377;42.836;23.998;2023-04-19T04:03:49;95265.25;;;8.67;100.00
12624;BME280;6377;42.836;23.998;2023-04-19T04:06:19;95256.53;;;8.66;100.00
12624;BME280;6377;42.836;23.998;2023-04-19T04:08:46;95263.09;;;8.70;100.00
12624;BME280;6377;42.836;23.998;2023-04-19T04:11:13;95261.09;;;8.72;100.00
12624;BME280;6377;42.836;23.998;2023-04-19T04:13:40;95265.66;;;8.78;100.00
12624;BME280;6377;42.836;23.998;2023-04-19T04:16:09;95262.38;;;8.76;100.00
12624;BME280;6377;42.836;23.998;2023-04-19T04:18:36;95263.13;;;8.85;100.00
12624;BME280;6377;42.836;23.998;2023-04-19T04:21:03;95264.09;;;8.92;100.00
12624;BME280;6377;42.836;23.998;2023-04-19T04:23:31;95263.19;;;8.99;100.00
12624;BME280;6377;42.836;23.998;2023-04-19T04:25:59;95265.34;;;8.96;100.00
12624;BME280;6377;42.836;23.998;2023-04-19T04:28:27;95269.34;;;8.92;100.00
12624;BME280;6377;42.836;23.998;2023-04-19T04:30:54;95248.25;;;8.69;100.00
12624;BME280;6377;42.836;23.998;2023-04-19T04:33:25;95264.25;;;8.90;100.00
12624;BME280;6377;42.836;23.998;2023-04-19T04:35:52;95267.22;;;8.87;100.00
12624;BME280;6377;42.836;23.998;2023-04-19T04:38:20;95264.44;;;8.89;100.00
12624;BME280;6377;42.836;23.998;2023-04-19T04:40:48;95269.72;;;8.89;100.00
12624;BME280;6377;42.836;23.998;2023-04-19T04:43:18;95269.16;;;8.93;100.00
12624;BME280;6377;42.836;23.998;2023-04-19T04:45:46;95264.28;;;9.05;100.00
12624;BME280;6377;42.836;23.998;2023-04-19T04:48:13;95239.69;;;8.90;100.00
12624;BME280;6377;42.836;23.998;2023-04-19T04:50:42;95162.25;;;8.54;100.00
12624;BME280;6377;42.836;23.998;2023-04-19T04:53:09;95250.81;;;9.00;100.00
12624;BME280;6377;42.836;23.998;2023-04-19T04:55:37;95225.25;;;8.86;100.00
12624;BME280;6377;42.836;23.998;2023-04-19T04:58:04;95272.81;;;9.07;100.00
12624;BME280;6377;42.836;23.998;2023-04-19T05:00:31;95257.16;;;8.91;100.00
12624;BME280;6377;42.836;23.998;2023-04-19T05:02:59;95252.66;;;8.77;100.00
12624;BME280;6377;42.836;23.998;2023-04-19T05:05:26;95240.00;;;8.72;100.00
12624;BME280;6377;42.836;23.998;2023-04-19T05:07:55;95273.94;;;8.98;100.00
12624;BME280;6377;42.836;23.998;2023-04-19T05:10:22;95268.19;;;8.94;100.00
12624;BME280;6377;42.836;23.998;2023-04-19T05:12:49;95276.22;;;9.01;100.00
12624;BME280;6377;42.836;23.998;2023-04-19T05:15:16;95278.09;;;9.07;100.00
12624;BME280;6377;42.836;23.998;2023-04-19T05:17:43;95276.47;;;9.06;100.00
12624;BME280;6377;42.836;23.998;2023-04-19T05:20:10;95276.03;;;9.17;100.00
12624;BME280;6377;42.836;23.998;2023-04-19T05:22:37;95285.41;;;9.20;100.00
12624;BME280;6377;42.836;23.998;2023-04-19T05:25:08;95277.03;;;9.16;100.00
12624;BME280;6377;42.836;23.998;2023-04-19T05:27:35;95271.13;;;9.14;100.00
12624;BME280;6377;42.836;23.998;2023-04-19T05:30:03;95269.50;;;9.28;100.00
12624;BME280;6377;42.836;23.998;2023-04-19T05:32:31;95271.06;;;9.37;100.00
12624;BME280;6377;42.836;23.998;2023-04-19T05:34:58;95269.09;;;9.39;100.00
12624;BME280;6377;42.836;23.998;2023-04-19T05:37:25;95277.06;;;9.45;100.00
12624;BME280;6377;42.836;23.998;2023-04-19T05:39:52;95272.91;;;9.51;100.00
12624;BME280;6377;42.836;23.998;2023-04-19T05:42:21;95248.38;;;9.28;100.00
12624;BME280;6377;42.836;23.998;2023-04-19T05:44:48;95278.34;;;9.35;100.00
12624;BME280;6377;42.836;23.998;2023-04-19T05:47:15;95276.50;;;9.21;100.00
12624;BME280;6377;42.836;23.998;2023-04-19T05:49:43;95279.31;;;9.19;100.00
12624;BME280;6377;42.836;23.998;2023-04-19T05:52:10;95280.34;;;9.18;100.00
12624;BME280;6377;42.836;23.998;2023-04-19T05:54:37;95286.25;;;9.20;100.00
12624;BME280;6377;42.836;23.998;2023-04-19T05:57:04;95287.94;;;9.13;100.00
12624;BME280;6377;42.836;23.998;2023-04-19T05:59:33;95282.38;;;9.08;100.00
12624;BME280;6377;42.836;23.998;2023-04-19T06:02:00;95287.16;;;9.13;100.00
12624;BME280;6377;42.836;23.998;2023-04-19T06:04:27;95286.03;;;9.22;100.00
12624;BME280;6377;42.836;23.998;2023-04-19T06:06:54;95193.84;;;8.76;100.00
12624;BME280;6377;42.836;23.998;2023-04-19T06:09:22;95287.53;;;9.24;100.00
12624;BME280;6377;42.836;23.998;2023-04-19T06:11:49;95287.19;;;9.27;100.00
12624;BME280;6377;42.836;23.998;2023-04-19T06:14:19;95257.69;;;9.24;100.00
12624;BME280;6377;42.836;23.998;2023-04-19T06:16:48;95285.53;;;9.41;100.00
12624;BME280;6377;42.836;23.998;2023-04-19T06:19:15;95285.28;;;9.50;100.00
12624;BME280;6377;42.836;23.998;2023-04-19T06:21:42;95257.50;;;9.25;100.00
12624;BME280;6377;42.836;23.998;2023-04-19T06:24:10;95250.66;;;9.16;100.00
12624;BME280;6377;42.836;23.998;2023-04-19T06:26:37;95275.41;;;9.15;100.00
12624;BME280;6377;42.836;23.998;2023-04-19T06:29:04;95290.91;;;9.33;100.00
12624;BME280;6377;42.836;23.998;2023-04-19T06:31:32;95288.53;;;9.38;100.00
12624;BME280;6377;42.836;23.998;2023-04-19T06:34:00;95290.56;;;9.36;100.00
12624;BME280;6377;42.836;23.998;2023-04-19T06:36:28;95262.75;;;9.25;100.00
12624;BME280;6377;42.836;23.998;2023-04-19T06:38:55;95291.28;;;9.44;100.00
12624;BME280;6377;42.836;23.998;2023-04-19T06:41:22;95291.44;;;9.43;100.00
12624;BME280;6377;42.836;23.998;2023-04-19T06:43:50;95271.88;;;9.23;100.00
12624;BME280;6377;42.836;23.998;2023-04-19T06:46:17;95272.50;;;9.25;100.00
12624;BME280;6377;42.836;23.998;2023-04-19T06:48:45;95294.28;;;9.41;100.00
12624;BME280;6377;42.836;23.998;2023-04-19T06:51:13;95297.41;;;9.45;100.00
12624;BME280;6377;42.836;23.998;2023-04-19T06:53:41;95290.38;;;9.52;100.00
12624;BME280;6377;42.836;23.998;2023-04-19T06:56:09;95299.22;;;9.59;100.00
12624;BME280;6377;42.836;23.998;2023-04-19T06:58:38;95269.00;;;9.47;100.00
12624;BME280;6377;42.836;23.998;2023-04-19T07:01:05;95300.41;;;9.71;100.00
12624;BME280;6377;42.836;23.998;2023-04-19T07:03:32;95283.38;;;9.59;100.00
12624;BME280;6377;42.836;23.998;2023-04-19T07:05:59;95305.59;;;9.79;100.00
12624;BME280;6377;42.836;23.998;2023-04-19T07:08:28;95304.03;;;9.85;100.00
12624;BME280;6377;42.836;23.998;2023-04-19T07:10:55;95309.53;;;9.83;100.00
12624;BME280;6377;42.836;23.998;2023-04-19T07:13:23;95288.75;;;9.80;100.00
12624;BME280;6377;42.836;23.998;2023-04-19T07:15:50;95246.31;;;9.52;100.00
12624;BME280;6377;42.836;23.998;2023-04-19T07:18:17;95306.59;;;9.93;100.00
12624;BME280;6377;42.836;23.998;2023-04-19T07:20:44;95299.84;;;9.90;100.00
12624;BME280;6377;42.836;23.998;2023-04-19T07:23:14;95259.31;;;9.54;100.00
12624;BME280;6377;42.836;23.998;2023-04-19T07:25:42;95303.06;;;9.71;100.00
12624;BME280;6377;42.836;23.998;2023-04-19T07:28:10;95307.88;;;9.68;100.00
12624;BME280;6377;42.836;23.998;2023-04-19T07:30:37;95308.69;;;9.68;100.00
12624;BME280;6377;42.836;23.998;2023-04-19T07:33:04;95311.69;;;9.65;100.00
12624;BME280;6377;42.836;23.998;2023-04-19T07:35:33;95260.69;;;9.35;100.00
12624;BME280;6377;42.836;23.998;2023-04-19T07:38:01;95309.53;;;9.69;100.00
12624;BME280;6377;42.836;23.998;2023-04-19T07:40:28;95314.25;;;9.73;100.00
12624;BME280;6377;42.836;23.998;2023-04-19T07:42:57;95314.34;;;9.80;100.00
12624;BME280;6377;42.836;23.998;2023-04-19T07:45:24;95295.13;;;9.71;100.00
12624;BME280;6377;42.836;23.998;2023-04-19T07:47:51;95323.34;;;9.85;100.00
12624;BME280;6377;42.836;23.998;2023-04-19T07:50:19;95313.06;;;9.76;100.00
12624;BME280;6377;42.836;23.998;2023-04-19T07:52:46;95327.63;;;9.86;100.00
12624;BME280;6377;42.836;23.998;2023-04-19T07:55:13;95320.81;;;9.92;100.00
12624;BME280;6377;42.836;23.998;2023-04-19T07:57:40;95317.72;;;9.88;100.00
12624;BME280;6377;42.836;23.998;2023-04-19T08:00:13;95325.44;;;9.90;100.00
12624;BME280;6377;42.836;23.998;2023-04-19T08:02:42;95322.63;;;9.91;100.00
12624;BME280;6377;42.836;23.998;2023-04-19T08:05:09;95327.19;;;9.97;100.00
12624;BME280;6377;42.836;23.998;2023-04-19T08:07:37;95311.50;;;9.96;100.00
12624;BME280;6377;42.836;23.998;2023-04-19T08:10:06;95322.06;;;10.10;100.00
12624;BME280;6377;42.836;23.998;2023-04-19T08:12:33;95293.94;;;10.03;100.00
12624;BME280;6377;42.836;23.998;2023-04-19T08:15:00;95320.72;;;10.29;100.00
12624;BME280;6377;42.836;23.998;2023-04-19T08:17:29;95301.66;;;10.19;100.00
12624;BME280;6377;42.836;23.998;2023-04-19T08:19:56;95303.94;;;10.22;100.00
12624;BME280;6377;42.836;23.998;2023-04-19T08:22:24;95324.63;;;10.19;100.00
12624;BME280;6377;42.836;23.998;2023-04-19T08:24:51;95321.97;;;10.19;100.00
12624;BME280;6377;42.836;23.998;2023-04-19T08:27:19;95324.34;;;10.28;100.00
12624;BME280;6377;42.836;23.998;2023-04-19T08:29:46;95319.25;;;10.27;100.00
12624;BME280;6377;42.836;23.998;2023-04-19T08:32:13;95322.44;;;10.22;100.00
12624;BME280;6377;42.836;23.998;2023-04-19T08:34:42;95323.88;;;10.25;100.00
12624;BME280;6377;42.836;23.998;2023-04-19T08:37:09;95321.63;;;10.22;100.00
12624;BME280;6377;42.836;23.998;2023-04-19T08:39:37;95315.72;;;10.20;100.00
12624;BME280;6377;42.836;23.998;2023-04-19T08:42:06;95318.25;;;10.13;100.00
12624;BME280;6377;42.836;23.998;2023-04-19T08:44:34;95317.91;;;10.16;100.00
12624;BME280;6377;42.836;23.998;2023-04-19T08:47:03;95299.31;;;10.09;100.00
12624;BME280;6377;42.836;23.998;2023-04-19T08:49:33;95311.63;;;10.17;100.00
12624;BME280;6377;42.836;23.998;2023-04-19T08:52:03;95311.50;;;10.25;100.00
12624;BME280;6377;42.836;23.998;2023-04-19T08:54:34;95289.28;;;10.20;100.00
12624;BME280;6377;42.836;23.998;2023-04-19T08:57:01;95296.59;;;10.18;100.00
12624;BME280;6377;42.836;23.998;2023-04-19T08:59:29;95312.78;;;10.29;100.00
12624;BME280;6377;42.836;23.998;2023-04-19T09:01:59;95313.25;;;10.33;100.00
12624;BME280;6377;42.836;23.998;2023-04-19T09:04:27;95316.38;;;10.43;100.00
12624;BME280;6377;42.836;23.998;2023-04-19T09:06:54;95297.38;;;10.33;100.00
12624;BME280;6377;42.836;23.998;2023-04-19T09:09:25;95297.25;;;10.41;100.00
12624;BME280;6377;42.836;23.998;2023-04-19T09:11:52;95289.38;;;10.26;100.00
12624;BME280;6377;42.836;23.998;2023-04-19T09:14:20;95299.75;;;10.28;100.00
12624;BME280;6377;42.836;23.998;2023-04-19T09:16:48;95310.84;;;10.38;100.00
12624;BME280;6377;42.836;23.998;2023-04-19T09:19:17;95263.94;;;10.10;100.00
12624;BME280;6377;42.836;23.998;2023-04-19T09:21:45;95307.09;;;10.47;100.00
12624;BME280;6377;42.836;23.998;2023-04-19T09:24:16;95287.06;;;10.38;100.00
12624;BME280;6377;42.836;23.998;2023-04-19T09:26:54;95307.91;;;10.68;100.00
12624;BME280;6377;42.836;23.998;2023-04-19T09:29:22;95312.00;;;10.86;100.00
12624;BME280;6377;42.836;23.998;2023-04-19T09:31:56;95302.34;;;10.99;100.00
12624;BME280;6377;42.836;23.998;2023-04-19T09:34:24;95262.03;;;10.76;100.00
12624;BME280;6377;42.836;23.998;2023-04-19T09:36:54;95309.63;;;11.18;100.00
12624;BME280;6377;42.836;23.998;2023-04-19T09:39:28;95294.94;;;11.16;100.00
12624;BME280;6377;42.836;23.998;2023-04-19T09:41:57;95303.38;;;11.26;100.00
12624;BME280;6377;42.836;23.998;2023-04-19T09:44:25;95275.13;;;11.05;100.00
12624;BME280;6377;42.836;23.998;2023-04-19T09:46:53;95278.00;;;11.10;100.00
12624;BME280;6377;42.836;23.998;2023-04-19T09:49:21;95296.44;;;11.25;100.00
12624;BME280;6377;42.836;23.998;2023-04-19T09:51:50;95298.69;;;11.49;100.00
12624;BME280;6377;42.836;23.998;2023-04-19T09:54:18;95290.41;;;11.65;100.00
12624;BME280;6377;42.836;23.998;2023-04-19T09:56:46;95286.34;;;11.63;100.00
12624;BME280;6377;42.836;23.998;2023-04-19T09:59:15;95285.47;;;11.77;100.00
12624;BME280;6377;42.836;23.998;2023-04-19T10:01:44;95283.06;;;11.89;100.00
12624;BME280;6377;42.836;23.998;2023-04-19T10:04:13;95284.53;;;11.98;100.00
12624;BME280;6377;42.836;23.998;2023-04-19T10:06:46;95282.44;;;11.87;100.00
12624;BME280;6377;42.836;23.998;2023-04-19T10:09:14;95284.53;;;11.91;100.00
12624;BME280;6377;42.836;23.998;2023-04-19T10:11:46;95282.81;;;12.18;100.00
12624;BME280;6377;42.836;23.998;2023-04-19T10:14:17;95290.94;;;12.70;100.00
12624;BME280;6377;42.836;23.998;2023-04-19T10:16:45;95280.41;;;13.42;100.00
12624;BME280;6377;42.836;23.998;2023-04-19T10:19:16;95284.41;;;13.97;100.00
12624;BME280;6377;42.836;23.998;2023-04-19T10:21:44;95289.47;;;14.25;100.00
12624;BME280;6377;42.836;23.998;2023-04-19T10:24:14;95288.91;;;14.10;100.00
12624;BME280;6377;42.836;23.998;2023-04-19T10:27:05;95276.31;;;13.73;100.00
12624;BME280;6377;42.836;23.998;2023-04-19T10:30:03;95280.22;;;13.51;100.00
12624;BME280;6377;42.836;23.998;2023-04-19T10:32:38;95259.78;;;13.64;100.00
12624;BME280;6377;42.836;23.998;2023-04-19T10:35:10;95274.41;;;13.99;100.00
12624;BME280;6377;42.836;23.998;2023-04-19T10:38:01;95261.84;;;14.33;100.00
12624;BME280;6377;42.836;23.998;2023-04-19T10:40:54;95270.63;;;14.33;100.00
12624;BME280;6377;42.836;23.998;2023-04-19T10:43:22;95259.13;;;14.46;100.00
12624;BME280;6377;42.836;23.998;2023-04-19T10:45:51;95256.75;;;14.69;100.00
12624;BME280;6377;42.836;23.998;2023-04-19T10:48:39;95252.00;;;14.78;100.00
12624;BME280;6377;42.836;23.998;2023-04-19T10:51:13;95241.94;;;14.42;100.00
12624;BME280;6377;42.836;23.998;2023-04-19T10:53:59;95242.56;;;14.44;100.00
12624;BME280;6377;42.836;23.998;2023-04-19T10:56:58;95249.97;;;14.35;100.00
12624;BME280;6377;42.836;23.998;2023-04-19T10:59:28;95249.44;;;14.00;100.00
12624;BME280;6377;42.836;23.998;2023-04-19T11:01:58;95248.28;;;13.77;100.00
12624;BME280;6377;42.836;23.998;2023-04-19T11:04:57;95248.66;;;13.87;100.00
12624;BME280;6377;42.836;23.998;2023-04-19T11:07:25;95252.59;;;13.71;100.00
12624;BME280;6377;42.836;23.998;2023-04-19T11:09:52;95202.38;;;13.43;100.00
12624;BME280;6377;42.836;23.998;2023-04-19T11:12:20;95245.66;;;13.57;100.00
12624;BME280;6377;42.836;23.998;2023-04-19T11:14:50;95238.06;;;13.74;100.00
12624;BME280;6377;42.836;23.998;2023-04-19T11:17:19;95245.50;;;14.23;100.00
12624;BME280;6377;42.836;23.998;2023-04-19T11:19:53;95211.50;;;14.69;100.00
12624;BME280;6377;42.836;23.998;2023-04-19T11:22:24;95231.00;;;15.44;100.00
12624;BME280;6377;42.836;23.998;2023-04-19T11:24:52;95235.81;;;15.78;100.00
12624;BME280;6377;42.836;23.998;2023-04-19T11:27:20;95232.78;;;15.75;100.00
12624;BME280;6377;42.836;23.998;2023-04-19T11:29:47;95240.31;;;15.59;100.00
12624;BME280;6377;42.836;23.998;2023-04-19T11:32:14;95207.97;;;15.92;100.00
12624;BME280;6377;42.836;23.998;2023-04-19T11:34:43;95230.13;;;16.29;100.00
12624;BME280;6377;42.836;23.998;2023-04-19T11:37:10;95220.50;;;16.28;100.00
12624;BME280;6377;42.836;23.998;2023-04-19T11:39:44;95212.13;;;15.88;100.00
12624;BME280;6377;42.836;23.998;2023-04-19T11:42:18;95227.91;;;16.26;100.00
12624;BME280;6377;42.836;23.998;2023-04-19T11:44:49;95225.88;;;16.40;100.00
12624;BME280;6377;42.836;23.998;2023-04-19T11:47:17;95221.44;;;16.34;100.00
12624;BME280;6377;42.836;23.998;2023-04-19T11:49:46;95212.16;;;16.84;100.00
12624;BME280;6377;42.836;23.998;2023-04-19T11:52:19;95215.28;;;17.46;100.00
12624;BME280;6377;42.836;23.998;2023-04-19T11:54:47;95207.84;;;17.94;94.21
12624;BME280;6377;42.836;23.998;2023-04-19T11:57:14;95188.53;;;17.11;91.15
12624;BME280;6377;42.836;23.998;2023-04-19T12:00:02;95200.09;;;17.69;93.98
12624;BME280;6377;42.836;23.998;2023-04-19T12:02:39;95208.19;;;18.61;86.62
12624;BME280;6377;42.836;23.998;2023-04-19T12:05:09;95207.66;;;18.24;78.66
12624;BME280;6377;42.836;23.998;2023-04-19T12:07:36;95205.28;;;17.53;82.48
12624;BME280;6377;42.836;23.998;2023-04-19T12:10:08;95199.25;;;17.34;86.07
12624;BME280;6377;42.836;23.998;2023-04-19T12:12:36;95185.59;;;17.12;87.16
12624;BME280;6377;42.836;23.998;2023-04-19T12:15:04;95195.53;;;16.82;89.94
12624;BME280;6377;42.836;23.998;2023-04-19T12:17:32;95195.94;;;16.38;97.60
12624;BME280;6377;42.836;23.998;2023-04-19T12:19:59;95199.66;;;16.37;89.60
12624;BME280;6377;42.836;23.998;2023-04-19T12:22:27;95193.13;;;16.33;92.55
12624;BME280;6377;42.836;23.998;2023-04-19T12:24:54;95178.06;;;16.08;94.81
12624;BME280;6377;42.836;23.998;2023-04-19T12:27:22;95197.81;;;16.01;94.59
12624;BME280;6377;42.836;23.998;2023-04-19T12:29:50;95190.44;;;15.85;93.08
12624;BME280;6377;42.836;23.998;2023-04-19T12:32:17;95196.34;;;15.68;97.29
12624;BME280;6377;42.836;23.998;2023-04-19T12:34:45;95193.22;;;15.53;95.74
12624;BME280;6377;42.836;23.998;2023-04-19T12:37:12;95180.16;;;15.45;99.65
12624;BME280;6377;42.836;23.998;2023-04-19T12:39:40;95174.69;;;15.15;100.00
12624;BME280;6377;42.836;23.998;2023-04-19T12:42:07;95163.00;;;14.92;100.00
12624;BME280;6377;42.836;23.998;2023-04-19T12:44:34;95180.94;;;15.03;100.00
12624;BME280;6377;42.836;23.998;2023-04-19T12:47:01;95178.44;;;14.83;100.00
12624;BME280;6377;42.836;23.998;2023-04-19T12:49:29;95179.41;;;14.64;100.00
12624;BME280;6377;42.836;23.998;2023-04-19T12:51:56;95182.59;;;14.41;100.00
12624;BME280;6377;42.836;23.998;2023-04-19T12:54:23;95180.00;;;14.28;100.00
12624;BME280;6377;42.836;23.998;2023-04-19T12:56:51;95182.22;;;14.31;100.00
12624;BME280;6377;42.836;23.998;2023-04-19T12:59:18;95176.78;;;14.13;100.00
12624;BME280;6377;42.836;23.998;2023-04-19T13:01:46;95138.28;;;13.84;100.00
12624;BME280;6377;42.836;23.998;2023-04-19T13:04:15;95173.09;;;14.14;100.00